createdAt,value
2023-04-29T00:02:13.410Z,5.70
2023-04-29T00:04:43.532Z,5.70
2023-04-29T00:07:15.666Z,5.70
2023-04-29T00:09:45.682Z,5.60
2023-04-29T00:12:16.775Z,5.60
2023-04-29T00:14:46.432Z,5.50
2023-04-29T00:17:16.515Z,5.50
2023-04-29T00:19:46.812Z,5.50
2023-04-29T00:22:16.151Z,5.40
2023-04-29T00:24:45.864Z,5.40
2023-04-29T00:27:17.216Z,5.40
2023-04-29T00:29:47.342Z,5.30
2023-04-29T00:32:16.613Z,5.30
2023-04-29T00:34:46.676Z,5.30
2023-04-29T00:37:16.568Z,5.20
2023-04-29T00:39:46.370Z,5.20
2023-04-29T00:42:17.122Z,5.20
2023-04-29T00:44:46.724Z,5.20
2023-04-29T00:47:16.232Z,5.10
2023-04-29T00:49:46.318Z,5.10
2023-04-29T00:52:16.866Z,5.10
2023-04-29T00:54:47.197Z,5.10
2023-04-29T00:57:18.428Z,5.00
2023-04-29T00:59:48.977Z,5.00
2023-04-29T01:02:19.536Z,5.00
2023-04-29T01:04:49.189Z,5.00
2023-04-29T01:07:20.776Z,4.90
2023-04-29T01:09:56.327Z,4.90
2023-04-29T01:12:40.432Z,4.90
2023-04-29T01:15:18.972Z,4.90
2023-04-29T01:17:57.404Z,4.90
2023-04-29T01:20:29.002Z,4.90
2023-04-29T01:22:58.469Z,4.90
2023-04-29T01:25:30.264Z,4.80
2023-04-29T01:28:09.715Z,4.90
2023-04-29T01:30:49.093Z,4.90
2023-04-29T01:33:25.307Z,4.90
2023-04-29T01:36:08.050Z,4.80
2023-04-29T01:38:43.635Z,4.80
2023-04-29T01:41:19.535Z,4.80
2023-04-29T01:43:52.650Z,4.80
2023-04-29T01:46:22.421Z,4.80
2023-04-29T01:48:55.813Z,4.90
2023-04-29T01:51:25.414Z,4.80
2023-04-29T01:53:54.801Z,4.80
2023-04-29T01:56:25.924Z,4.80
2023-04-29T01:58:55.702Z,4.80
2023-04-29T02:01:25.561Z,4.80
2023-04-29T02:03:55.052Z,4.80
2023-04-29T02:06:24.847Z,4.90
2023-04-29T02:08:54.181Z,4.90
2023-04-29T02:11:25.452Z,4.90
2023-04-29T02:13:55.041Z,4.90
2023-04-29T02:16:24.631Z,4.90
2023-04-29T02:18:54.056Z,4.90
2023-04-29T02:21:24.358Z,5.00
2023-04-29T02:23:54.745Z,5.00
2023-04-29T02:26:25.845Z,5.00
2023-04-29T02:28:57.513Z,5.00
2023-04-29T02:31:29.513Z,5.00
2023-04-29T02:33:58.874Z,5.00
2023-04-29T02:36:29.122Z,5.00
2023-04-29T02:38:58.341Z,5.00
2023-04-29T02:41:29.967Z,5.10
2023-04-29T02:43:59.439Z,5.00
2023-04-29T02:46:29.428Z,5.10
2023-04-29T02:48:58.719Z,5.10
2023-04-29T02:51:28.472Z,5.10
2023-04-29T02:53:58.976Z,5.20
2023-04-29T02:56:29.999Z,5.20
2023-04-29T02:58:59.241Z,5.20
2023-04-29T03:01:29.484Z,5.20
2023-04-29T03:03:59.061Z,5.30
2023-04-29T03:06:29.761Z,5.30
2023-04-29T03:08:59.328Z,5.30
2023-04-29T03:11:30.488Z,5.30
2023-04-29T03:13:59.928Z,5.30
2023-04-29T03:16:30.723Z,5.40
2023-04-29T03:18:59.963Z,5.40
2023-04-29T03:21:30.139Z,5.40
2023-04-29T03:23:59.524Z,5.40
2023-04-29T03:26:31.113Z,5.40
2023-04-29T03:29:00.638Z,5.30
2023-04-29T03:31:30.267Z,5.40
2023-04-29T03:33:59.870Z,5.40
2023-04-29T03:36:29.957Z,5.40
2023-04-29T03:38:59.189Z,5.40
2023-04-29T03:41:30.465Z,5.50
2023-04-29T03:44:01.141Z,5.50
2023-04-29T03:46:30.888Z,5.50
2023-04-29T03:49:00.271Z,5.60
2023-04-29T03:51:30.246Z,5.60
2023-04-29T03:54:00.511Z,5.60
2023-04-29T03:56:31.551Z,5.70
2023-04-29T03:59:00.981Z,5.80
2023-04-29T04:01:30.648Z,5.80
2023-04-29T04:04:00.359Z,5.80
2023-04-29T04:06:30.247Z,5.90
2023-04-29T04:09:00.039Z,5.90
2023-04-29T04:11:31.203Z,6.00
2023-04-29T04:14:00.450Z,6.00
2023-04-29T04:16:30.207Z,6.10
2023-04-29T04:18:59.723Z,6.10
2023-04-29T04:21:30.369Z,6.20
2023-04-29T04:23:59.928Z,6.20
2023-04-29T04:26:31.151Z,6.20
2023-04-29T04:29:00.554Z,6.30
2023-04-29T04:31:30.249Z,6.40
2023-04-29T04:34:00.169Z,6.40
2023-04-29T04:36:29.844Z,6.40
2023-04-29T04:38:59.089Z,6.50
2023-04-29T04:41:32.301Z,6.50
2023-04-29T04:44:02.430Z,6.60
2023-04-29T04:46:32.050Z,6.60
2023-04-29T04:49:01.389Z,6.60
2023-04-29T04:51:31.031Z,6.80
2023-04-29T04:54:00.388Z,6.80
2023-04-29T04:56:31.461Z,7.00
2023-04-29T04:59:00.891Z,7.00
2023-04-29T05:01:30.887Z,7.00
2023-04-29T05:04:01.111Z,7.00
2023-04-29T05:06:30.841Z,7.10
2023-04-29T05:09:00.067Z,7.10
2023-04-29T05:11:31.156Z,7.10
2023-04-29T05:14:00.404Z,7.20
2023-04-29T05:16:30.095Z,7.20
2023-04-29T05:18:59.610Z,7.20
2023-04-29T05:21:29.712Z,7.20
2023-04-29T05:23:59.153Z,7.30
2023-04-29T05:26:28.776Z,7.30
2023-04-29T05:29:00.151Z,7.30
2023-04-29T05:31:30.724Z,7.40
2023-04-29T05:34:00.789Z,7.40
2023-04-29T05:36:30.400Z,7.40
2023-04-29T05:38:59.871Z,7.50
2023-04-29T05:41:29.625Z,7.50
2023-04-29T05:44:00.349Z,7.50
2023-04-29T05:46:30.168Z,7.70
2023-04-29T05:48:59.447Z,7.80
2023-04-29T05:51:29.322Z,8.00
2023-04-29T05:54:00.025Z,8.00
2023-04-29T05:56:29.882Z,8.20
2023-04-29T05:59:00.884Z,8.10
2023-04-29T06:01:30.642Z,8.20
2023-04-29T06:04:00.053Z,8.30
2023-04-29T06:06:30.600Z,8.30
2023-04-29T06:09:02.004Z,8.50
2023-04-29T06:11:31.823Z,8.60
2023-04-29T06:14:02.611Z,8.80
2023-04-29T06:16:32.548Z,8.80
2023-04-29T06:19:02.346Z,8.80
2023-04-29T06:21:32.833Z,8.80
2023-04-29T06:24:02.367Z,8.90
2023-04-29T06:26:32.020Z,9.10
2023-04-29T06:29:02.779Z,9.10
2023-04-29T06:31:32.685Z,9.30
2023-04-29T06:34:02.070Z,9.40
2023-04-29T06:36:32.839Z,9.40
2023-04-29T06:39:02.299Z,9.40
2023-04-29T06:41:32.665Z,9.40
2023-04-29T06:44:03.584Z,9.40
2023-04-29T06:46:34.627Z,9.40
2023-04-29T06:49:04.462Z,9.20
2023-04-29T06:51:34.092Z,9.20
2023-04-29T06:54:03.394Z,9.40
2023-04-29T06:56:33.393Z,9.50
2023-04-29T06:59:04.767Z,9.60
2023-04-29T07:01:34.993Z,9.70
2023-04-29T07:04:04.637Z,9.90
2023-04-29T07:06:34.420Z,10.00
2023-04-29T07:09:03.950Z,10.00
2023-04-29T07:11:33.802Z,10.20
2023-04-29T07:14:04.494Z,10.40
2023-04-29T07:16:34.229Z,10.50
2023-04-29T07:19:03.525Z,10.50
2023-04-29T07:21:33.129Z,10.60
2023-04-29T07:24:05.332Z,10.60
2023-04-29T07:26:35.069Z,10.70
2023-04-29T07:29:05.806Z,10.80
2023-04-29T07:31:38.029Z,10.70
2023-04-29T07:34:07.816Z,10.60
2023-04-29T07:36:37.410Z,10.40
2023-04-29T07:39:06.667Z,10.50
2023-04-29T07:41:36.424Z,10.60
2023-04-29T07:44:07.413Z,10.70
2023-04-29T07:46:37.190Z,10.70
2023-04-29T07:49:07.175Z,10.90
2023-04-29T07:51:36.775Z,10.90
2023-04-29T07:54:06.200Z,10.90
2023-04-29T07:56:35.938Z,11.10
2023-04-29T07:59:06.794Z,11.20
2023-04-29T08:01:36.526Z,11.30
2023-04-29T08:04:06.182Z,11.40
2023-04-29T08:06:36.182Z,11.60
2023-04-29T08:09:05.481Z,11.80
2023-04-29T08:11:35.370Z,11.90
2023-04-29T08:14:06.463Z,12.10
2023-04-29T08:16:36.312Z,12.40
2023-04-29T08:19:05.908Z,12.30
2023-04-29T08:21:36.091Z,12.40
2023-04-29T08:24:06.370Z,12.60
2023-04-29T08:26:36.048Z,12.70
2023-04-29T08:29:07.052Z,12.90
2023-04-29T08:31:37.128Z,12.90
2023-04-29T08:34:06.463Z,13.00
2023-04-29T08:36:38.914Z,13.10
2023-04-29T08:39:08.146Z,13.20
2023-04-29T08:41:39.640Z,12.90
2023-04-29T08:44:10.334Z,12.90
2023-04-29T08:46:41.945Z,13.00
2023-04-29T08:49:11.855Z,13.20
2023-04-29T08:51:41.995Z,13.20
2023-04-29T08:54:12.573Z,13.40
2023-04-29T08:56:41.978Z,13.40
2023-04-29T08:59:14.181Z,13.50
2023-04-29T09:01:45.182Z,13.60
2023-04-29T09:04:33.485Z,13.80
2023-04-29T09:07:06.006Z,14.10
2023-04-29T09:09:35.804Z,14.40
2023-04-29T09:12:05.705Z,14.90
2023-04-29T09:14:37.767Z,14.90
2023-04-29T09:17:07.394Z,14.80
2023-04-29T09:19:38.673Z,15.00
2023-04-29T09:22:08.782Z,15.00
2023-04-29T09:24:38.375Z,15.30
2023-04-29T09:27:09.490Z,15.20
2023-04-29T09:29:40.600Z,15.30
2023-04-29T09:32:22.175Z,15.30
2023-04-29T09:34:51.536Z,14.90
2023-04-29T09:37:28.002Z,14.70
2023-04-29T09:39:57.359Z,14.90
2023-04-29T09:42:27.160Z,14.70
2023-04-29T09:44:57.974Z,14.80
2023-04-29T09:47:33.390Z,14.80
2023-04-29T09:50:16.691Z,15.30
2023-04-29T09:52:46.336Z,15.40
2023-04-29T09:55:17.673Z,15.30
2023-04-29T09:57:47.429Z,15.30
2023-04-29T10:00:18.796Z,15.30
2023-04-29T10:02:49.339Z,15.30
2023-04-29T10:05:19.165Z,15.30
2023-04-29T10:07:51.416Z,15.30
2023-04-29T10:10:23.587Z,15.30
2023-04-29T10:12:55.926Z,15.00
2023-04-29T10:15:31.292Z,14.70
2023-04-29T10:18:11.561Z,14.90
2023-04-29T10:20:48.280Z,15.00
2023-04-29T10:23:19.445Z,15.10
2023-04-29T10:25:49.856Z,15.30
2023-04-29T10:28:20.349Z,15.20
2023-04-29T10:30:53.370Z,15.40
2023-04-29T10:33:23.909Z,15.40
2023-04-29T10:35:54.379Z,15.00
2023-04-29T10:38:29.885Z,14.80
2023-04-29T10:41:01.742Z,14.70
2023-04-29T10:43:31.999Z,14.70
2023-04-29T10:46:24.624Z,14.70
2023-04-29T10:48:59.917Z,14.70
2023-04-29T10:51:33.539Z,14.60
2023-04-29T10:54:10.188Z,14.40
2023-04-29T10:56:41.169Z,14.40
2023-04-29T10:59:22.894Z,14.30
2023-04-29T11:01:54.860Z,14.30
2023-04-29T11:04:25.232Z,14.20
2023-04-29T11:06:56.275Z,14.30
2023-04-29T11:09:28.391Z,14.40
2023-04-29T11:12:03.688Z,14.30
2023-04-29T11:14:37.677Z,14.50
2023-04-29T11:17:11.163Z,14.60
2023-04-29T11:19:45.242Z,14.70
2023-04-29T11:22:27.768Z,14.80
2023-04-29T11:25:00.683Z,14.80
2023-04-29T11:27:32.715Z,14.70
2023-04-29T11:30:05.530Z,15.00
2023-04-29T11:32:38.147Z,15.00
2023-04-29T11:35:12.213Z,15.20
2023-04-29T11:37:46.521Z,15.20
2023-04-29T11:40:17.706Z,15.20
2023-04-29T11:42:48.673Z,15.30
2023-04-29T11:45:20.273Z,15.40
2023-04-29T11:47:52.740Z,15.30
2023-04-29T11:50:24.432Z,15.40
2023-04-29T11:52:53.811Z,15.60
2023-04-29T11:55:23.769Z,15.50
2023-04-29T11:57:54.062Z,15.50
2023-04-29T12:00:23.760Z,15.50
2023-04-29T12:02:55.675Z,15.50
2023-04-29T12:05:28.124Z,15.40
2023-04-29T12:07:57.497Z,15.40
2023-04-29T12:10:27.136Z,15.40
2023-04-29T12:12:57.128Z,15.10
2023-04-29T12:15:27.486Z,15.10
2023-04-29T12:17:58.878Z,14.90
2023-04-29T12:20:29.520Z,14.80
2023-04-29T12:22:59.526Z,14.70
2023-04-29T12:25:29.794Z,15.00
2023-04-29T12:28:01.904Z,15.00
2023-04-29T12:30:31.705Z,14.90
2023-04-29T12:33:03.847Z,14.80
2023-04-29T12:35:33.854Z,14.90
2023-04-29T12:38:03.297Z,14.90
2023-04-29T12:40:34.316Z,14.90
2023-04-29T12:43:08.770Z,15.00
2023-04-29T12:45:38.777Z,14.90
2023-04-29T12:48:15.094Z,15.00
2023-04-29T12:50:58.688Z,14.80
2023-04-29T12:53:28.684Z,14.70
2023-04-29T12:56:00.385Z,14.60
2023-04-29T12:58:31.556Z,14.40
2023-04-29T13:01:02.041Z,14.40
2023-04-29T13:03:33.557Z,14.30
2023-04-29T13:06:03.592Z,14.40
2023-04-29T13:08:32.848Z,14.20
2023-04-29T13:11:02.772Z,14.30
2023-04-29T13:13:32.951Z,14.30
2023-04-29T13:16:02.767Z,14.30
2023-04-29T13:18:34.814Z,14.20
2023-04-29T13:21:06.426Z,14.20
2023-04-29T13:23:35.727Z,14.30
2023-04-29T13:26:05.718Z,14.20
2023-04-29T13:28:34.975Z,14.20
2023-04-29T13:31:04.716Z,14.30
2023-04-29T13:33:38.051Z,14.30
2023-04-29T13:36:10.170Z,14.20
2023-04-29T13:38:39.441Z,14.20
2023-04-29T13:41:11.635Z,14.20
2023-04-29T13:43:49.080Z,14.20
2023-04-29T13:46:21.242Z,14.20
2023-04-29T13:52:07.233Z,14.20
2023-04-29T14:02:21.538Z,14.50
2023-04-29T14:04:44.121Z,14.50
2023-04-29T14:07:15.599Z,14.60
2023-04-29T14:09:44.990Z,14.70
2023-04-29T14:12:14.938Z,14.70
2023-04-29T14:14:44.224Z,14.70
2023-04-29T14:17:13.993Z,14.70
2023-04-29T14:19:44.828Z,14.80
2023-04-29T14:22:14.510Z,14.90
2023-04-29T14:24:43.935Z,15.00
2023-04-29T14:27:13.608Z,15.10
2023-04-29T14:29:43.070Z,15.10
2023-04-29T14:32:12.806Z,15.30
2023-04-29T14:34:43.893Z,15.30
2023-04-29T14:37:13.656Z,15.30
2023-04-29T14:39:42.991Z,15.30
2023-04-29T14:42:15.304Z,15.30
2023-04-29T14:44:44.624Z,15.30
2023-04-29T14:47:14.386Z,15.20
2023-04-29T14:49:45.125Z,15.10
2023-04-29T14:52:14.787Z,14.90
2023-04-29T14:54:44.184Z,14.90
2023-04-29T14:57:14.073Z,14.90
2023-04-29T14:59:43.776Z,14.80
2023-04-29T15:02:13.792Z,14.70
2023-04-29T15:04:46.616Z,14.70
2023-04-29T15:07:17.186Z,14.70
2023-04-29T15:09:46.703Z,14.70
2023-04-29T15:12:17.921Z,14.70
2023-04-29T15:14:47.766Z,14.70
2023-04-29T15:17:17.472Z,14.70
2023-04-29T15:19:48.415Z,14.70
2023-04-29T15:22:19.563Z,14.70
2023-04-29T15:27:18.472Z,14.70
2023-04-29T15:29:47.747Z,14.70
2023-04-29T15:32:18.334Z,14.60
2023-04-29T15:34:49.126Z,14.70
2023-04-29T15:37:18.926Z,14.80
2023-04-29T15:39:48.196Z,14.80
2023-04-29T15:42:18.188Z,14.90
2023-04-29T15:44:47.529Z,14.90
2023-04-29T15:47:17.694Z,14.90
2023-04-29T15:49:48.499Z,15.00
2023-04-29T15:52:18.442Z,15.00
2023-04-29T15:54:47.724Z,15.00
2023-04-29T15:57:17.660Z,15.00
2023-04-29T15:59:46.981Z,15.10
2023-04-29T16:02:25.136Z,15.00
2023-04-29T16:04:56.369Z,15.00
2023-04-29T16:07:26.079Z,14.90
2023-04-29T16:09:55.577Z,14.80
2023-04-29T16:12:25.399Z,14.80
2023-04-29T16:14:54.922Z,14.80
2023-04-29T16:17:25.248Z,14.70
2023-04-29T16:19:56.233Z,14.70
2023-04-29T16:22:29.384Z,14.70
2023-04-29T16:24:58.779Z,14.60
2023-04-29T16:27:30.327Z,14.60
2023-04-29T16:30:00.024Z,14.50
2023-04-29T16:32:30.340Z,14.50
2023-04-29T16:35:01.950Z,14.40
2023-04-29T16:37:32.131Z,14.40
2023-04-29T16:40:01.586Z,14.30
2023-04-29T16:42:31.294Z,14.30
2023-04-29T16:45:00.670Z,14.30
2023-04-29T16:47:30.536Z,14.30
2023-04-29T16:50:01.463Z,14.30
2023-04-29T16:52:31.199Z,14.20
2023-04-29T16:55:01.779Z,14.20
2023-04-29T16:57:32.310Z,14.20
2023-04-29T17:00:01.641Z,14.20
2023-04-29T17:02:31.822Z,14.20
2023-04-29T17:05:02.868Z,14.10
2023-04-29T17:07:33.392Z,14.10
2023-04-29T17:10:02.833Z,14.10
2023-04-29T17:12:32.585Z,14.10
2023-04-29T17:15:01.911Z,14.00
2023-04-29T17:17:31.876Z,14.00
2023-04-29T17:20:02.694Z,14.00
2023-04-29T17:22:33.618Z,13.90
2023-04-29T17:25:03.302Z,13.90
2023-04-29T17:27:33.024Z,13.80
2023-04-29T17:30:02.315Z,13.70
2023-04-29T17:32:39.094Z,13.70
2023-04-29T17:35:12.024Z,13.70
2023-04-29T17:37:41.958Z,13.70
2023-04-29T17:40:11.809Z,13.70
2023-04-29T17:42:42.033Z,13.60
2023-04-29T17:45:12.488Z,13.60
2023-04-29T17:47:42.698Z,13.60
2023-04-29T17:50:13.777Z,13.70
2023-04-29T17:52:43.545Z,13.60
2023-04-29T17:55:13.124Z,13.60
2023-04-29T17:57:42.815Z,13.50
2023-04-29T18:00:13.286Z,13.50
2023-04-29T18:02:42.821Z,13.50
2023-04-29T18:05:14.540Z,13.50
2023-04-29T18:07:45.147Z,13.50
2023-04-29T18:10:14.636Z,13.50
2023-04-29T18:12:44.643Z,13.50
2023-04-29T18:15:16.787Z,13.40
2023-04-29T18:17:47.001Z,13.40
2023-04-29T18:20:17.773Z,13.50
2023-04-29T18:22:47.459Z,13.50
2023-04-29T18:25:17.612Z,13.50
2023-04-29T18:27:47.366Z,13.50
2023-04-29T18:30:19.427Z,13.40
2023-04-29T18:32:49.948Z,13.30
2023-04-29T18:35:20.965Z,13.20
2023-04-29T18:37:51.194Z,13.20
2023-04-29T18:40:20.582Z,13.10
2023-04-29T18:42:50.457Z,13.10
2023-04-29T18:45:20.230Z,13.10
2023-04-29T18:47:49.894Z,13.10
2023-04-29T18:50:20.963Z,13.00
2023-04-29T18:52:50.983Z,12.90
2023-04-29T18:55:20.754Z,12.90
2023-04-29T18:57:50.759Z,12.80
2023-04-29T19:00:20.282Z,12.60
2023-04-29T19:02:49.998Z,12.50
2023-04-29T19:05:21.571Z,12.50
2023-04-29T19:07:51.325Z,12.50
2023-04-29T19:10:20.838Z,12.40
2023-04-29T19:12:50.960Z,12.30
2023-04-29T19:15:20.439Z,12.20
2023-04-29T19:17:50.461Z,12.20
2023-04-29T19:20:24.077Z,12.10
2023-04-29T19:22:53.908Z,12.00
2023-04-29T19:25:26.298Z,12.00
2023-04-29T19:27:56.253Z,12.00
2023-04-29T19:30:25.492Z,11.90
2023-04-29T19:32:55.840Z,11.90
2023-04-29T19:35:26.942Z,11.80
2023-04-29T19:37:57.199Z,11.70
2023-04-29T19:40:26.454Z,11.70
2023-04-29T19:42:56.467Z,11.70
2023-04-29T19:45:26.687Z,11.60
2023-04-29T19:47:56.807Z,11.60
2023-04-29T19:50:27.618Z,11.60
2023-04-29T19:52:57.658Z,11.40
2023-04-29T19:55:27.278Z,11.50
2023-04-29T19:57:57.134Z,11.40
2023-04-29T20:00:26.501Z,11.30
2023-04-29T20:02:56.829Z,11.30
2023-04-29T20:05:28.261Z,11.30
2023-04-29T20:07:58.053Z,11.20
2023-04-29T20:10:29.782Z,11.20
2023-04-29T20:12:59.892Z,11.20
2023-04-29T20:15:29.298Z,11.10
2023-04-29T20:17:59.640Z,11.10
2023-04-29T20:20:31.192Z,11.10
2023-04-29T20:23:01.115Z,11.00
2023-04-29T20:25:30.556Z,11.00
2023-04-29T20:28:00.327Z,10.90
2023-04-29T20:30:29.986Z,10.90
2023-04-29T20:32:59.794Z,10.90
2023-04-29T20:35:30.770Z,10.90
2023-04-29T20:38:01.156Z,10.80
2023-04-29T20:40:30.635Z,10.70
2023-04-29T20:43:00.311Z,10.60
2023-04-29T20:45:29.752Z,10.50
2023-04-29T20:47:59.815Z,10.40
2023-04-29T20:50:30.675Z,10.30
2023-04-29T20:53:01.025Z,10.20
2023-04-29T20:55:30.292Z,10.10
2023-04-29T20:57:59.989Z,10.00
2023-04-29T21:00:29.450Z,9.90
2023-04-29T21:02:59.330Z,9.90
2023-04-29T21:05:30.166Z,9.80
2023-04-29T21:07:59.822Z,9.70
2023-04-29T21:10:29.070Z,9.70
2023-04-29T21:12:59.459Z,9.60
2023-04-29T21:15:29.629Z,9.60
2023-04-29T21:17:59.622Z,9.50
2023-04-29T21:20:30.615Z,9.40
2023-04-29T21:23:01.432Z,9.40
2023-04-29T21:25:30.663Z,9.30
2023-04-29T21:28:00.843Z,9.30
2023-04-29T21:30:30.264Z,9.20
2023-04-29T21:33:01.345Z,9.10
2023-04-29T21:35:32.181Z,9.10
2023-04-29T21:38:01.895Z,9.00
2023-04-29T21:40:31.691Z,8.90
2023-04-29T21:43:02.131Z,8.90
2023-04-29T21:45:31.897Z,8.80
2023-04-29T21:48:15.042Z,8.70
2023-04-29T21:50:46.526Z,8.70
2023-04-29T21:53:16.722Z,8.60
2023-04-29T21:55:46.781Z,8.60
2023-04-29T21:58:16.494Z,8.50
2023-04-29T22:00:58.365Z,8.50
2023-04-29T22:03:28.282Z,8.40
2023-04-29T22:05:59.413Z,8.30
2023-04-29T22:08:30.931Z,8.30
2023-04-29T22:11:00.346Z,8.30
2023-04-29T22:13:30.207Z,8.20
2023-04-29T22:15:59.823Z,8.20
2023-04-29T22:18:29.512Z,8.20
2023-04-29T22:21:00.837Z,8.10
2023-04-29T22:23:31.088Z,8.10
2023-04-29T22:26:00.475Z,8.00
2023-04-29T22:28:30.272Z,8.00
2023-04-29T22:30:59.698Z,8.00
2023-04-29T22:33:30.156Z,8.00
2023-04-29T22:36:00.936Z,7.90
2023-04-29T22:38:31.470Z,7.90
2023-04-29T22:41:02.085Z,7.90
2023-04-29T22:43:32.307Z,7.80
2023-04-29T22:46:01.553Z,7.80
2023-04-29T22:48:31.536Z,7.80
2023-04-29T22:51:03.199Z,7.70
2023-04-29T22:53:33.167Z,7.70
2023-04-29T22:56:03.537Z,7.70
2023-04-29T22:58:34.070Z,7.60
2023-04-29T23:01:03.537Z,7.60
2023-04-29T23:03:33.179Z,7.50
2023-04-29T23:06:04.008Z,7.50
2023-04-29T23:08:34.311Z,7.40
2023-04-29T23:11:03.554Z,7.40
2023-04-29T23:13:33.630Z,7.40
2023-04-29T23:16:03.840Z,7.30
2023-04-29T23:18:34.184Z,7.30
2023-04-29T23:21:05.151Z,7.20
2023-04-29T23:23:35.326Z,7.20
2023-04-29T23:26:04.939Z,7.20
2023-04-29T23:28:34.892Z,7.20
2023-04-29T23:31:04.515Z,7.10
2023-04-29T23:33:34.188Z,7.00
2023-04-29T23:36:05.129Z,7.00
2023-04-29T23:38:34.892Z,7.00
2023-04-29T23:41:04.148Z,7.00
2023-04-29T23:43:33.756Z,6.90
2023-04-29T23:46:03.279Z,6.90
2023-04-29T23:48:35.359Z,6.90
2023-04-29T23:51:06.504Z,6.90
2023-04-29T23:53:36.181Z,6.80
2023-04-29T23:56:06.039Z,6.80
2023-04-29T23:58:35.832Z,6.70
